Time;durP1;ratioP1;P1;durP2;ratioP2;P2;SDS_P1;SDS_P2;PMS_P1;PMS_P2;Temp;Humidity;BMP_temperature;BMP_pressure;BME280_temperature;BME280_humidity;BME280_pressure;Samples;Min_cycle;Max_cycle;Signal;HPM_P1;HPM_P2
2021/10/28 00:12:40;;;;;;;3.80;2.38;;;21.20;56.30;;;;;;3226229;22;20052;-88
2021/10/28 00:14:12;;;;;;;3.75;2.10;;;21.10;56.30;;;;;;3155354;28;20075;-88
2021/10/28 00:15:53;;;;;;;3.38;2.20;;;21.10;56.40;;;;;;3156409;28;20409;-87
2021/10/28 00:17:39;;;;;;;3.03;2.10;;;21.10;56.40;;;;;;3159593;28;20473;-88
2021/10/28 00:19:11;;;;;;;5.32;2.33;;;21.10;56.40;;;;;;3151722;28;20087;-88
2021/10/28 00:20:43;;;;;;;4.47;2.38;;;21.10;56.40;;;;;;3158418;28;20063;-87
2021/10/28 00:22:15;;;;;;;5.25;1.90;;;21.10;56.40;;;;;;3159570;28;20054;-87
2021/10/28 00:23:49;;;;;;;4.25;2.03;;;21.10;56.40;;;;;;3158721;28;20112;-87
2021/10/28 00:25:21;;;;;;;4.78;2.40;;;21.10;57.10;;;;;;3159624;28;20048;-87
2021/10/28 00:26:53;;;;;;;5.15;2.60;;;21.10;56.40;;;;;;3159309;28;20044;-88
2021/10/28 00:28:26;;;;;;;3.97;2.63;;;21.10;56.30;;;;;;3159147;28;20044;-87
2021/10/28 00:29:57;;;;;;;3.15;2.38;;;21.00;56.30;;;;;;3159164;28;20097;-87
2021/10/28 00:31:30;;;;;;;3.28;2.55;;;21.10;56.40;;;;;;3159078;28;20051;-88
2021/10/28 00:33:02;;;;;;;3.50;2.20;;;21.10;56.40;;;;;;3158810;28;20074;-87
2021/10/28 00:34:34;;;;;;;5.05;2.38;;;21.10;56.30;;;;;;3155366;28;20486;-88
2021/10/28 00:36:06;;;;;;;3.70;2.60;;;21.00;56.20;;;;;;3151756;28;20548;-87
2021/10/28 00:37:38;;;;;;;3.60;2.42;;;21.00;56.20;;;;;;3146348;28;20052;-88
2021/10/28 00:39:09;;;;;;;5.82;2.75;;;21.10;56.30;;;;;;3146981;28;20552;-88
2021/10/28 00:40:41;;;;;;;3.10;2.28;;;21.00;56.20;;;;;;3156731;28;20494;-87
2021/10/28 00:42:14;;;;;;;3.10;2.30;;;21.00;56.30;;;;;;3159444;28;20101;-87
2021/10/28 00:43:49;;;;;;;3.75;2.40;;;21.00;56.30;;;;;;3158891;28;20043;-88
2021/10/28 00:45:23;;;;;;;3.47;2.30;;;21.00;56.40;;;;;;3149280;28;20391;-87
2021/10/28 00:46:55;;;;;;;5.47;2.80;;;21.00;56.40;;;;;;3159582;28;20052;-88
2021/10/28 00:48:26;;;;;;;4.00;2.70;;;21.00;56.90;;;;;;3158965;28;20044;-88
2021/10/28 00:49:58;;;;;;;3.58;2.53;;;21.00;56.30;;;;;;3159040;28;20109;-87
2021/10/28 00:51:31;;;;;;;4.75;2.50;;;21.00;56.30;;;;;;3156763;28;20051;-88
2021/10/28 00:53:01;;;;;;;3.58;2.67;;;21.00;56.30;;;;;;3160113;28;20051;-88
2021/10/28 00:54:33;;;;;;;4.35;2.60;;;21.00;56.30;;;;;;3158905;28;20142;-88
2021/10/28 00:56:05;;;;;;;3.40;2.47;;;21.00;56.30;;;;;;3159159;28;20555;-87
2021/10/28 00:57:37;;;;;;;3.75;2.53;;;21.00;56.30;;;;;;3158236;28;20044;-88
2021/10/28 00:59:10;;;;;;;3.60;2.38;;;20.90;56.20;;;;;;3161810;28;20047;-87
2021/10/28 01:00:42;;;;;;;3.72;2.30;;;21.00;56.30;;;;;;3166255;28;20406;-87
2021/10/28 01:02:14;;;;;;;4.97;2.70;;;20.90;56.20;;;;;;3159208;28;20054;-87
2021/10/28 01:03:46;;;;;;;4.90;2.45;;;20.90;56.30;;;;;;3157392;28;20301;-87
2021/10/28 01:05:17;;;;;;;3.83;2.53;;;20.90;56.30;;;;;;3152952;28;20440;-88
2021/10/28 01:06:49;;;;;;;2.80;2.33;;;20.90;56.30;;;;;;3152402;28;20067;-87
2021/10/28 01:08:20;;;;;;;3.60;2.03;;;20.90;56.30;;;;;;3158319;28;20093;-87
2021/10/28 01:09:52;;;;;;;3.25;2.40;;;20.90;56.40;;;;;;3157734;28;20286;-88
2021/10/28 01:11:25;;;;;;;4.70;2.22;;;20.90;56.40;;;;;;3159392;28;20093;-88
2021/10/28 01:12:56;;;;;;;;;;;20.90;56.70;;;;;;3158869;28;20056;-88
2021/10/28 01:14:41;;;;;;;4.65;2.40;;;20.90;56.50;;;;;;3155257;28;19920;-88
2021/10/28 01:16:13;;;;;;;5.03;2.80;;;20.90;56.20;;;;;;3158072;28;20052;-88
2021/10/28 01:17:44;;;;;;;3.10;2.08;;;20.90;56.20;;;;;;3158310;28;20048;-88
2021/10/28 01:19:16;;;;;;;2.88;2.30;;;20.90;56.20;;;;;;3159078;28;20048;-87
2021/10/28 01:20:50;;;;;;;2.70;2.10;;;20.90;56.20;;;;;;3158475;28;20048;-88
2021/10/28 01:22:22;;;;;;;2.92;2.17;;;20.90;56.30;;;;;;3158725;28;20048;-88
2021/10/28 01:23:54;;;;;;;4.55;2.55;;;20.90;56.30;;;;;;3158331;28;20054;-87
2021/10/28 01:25:26;;;;;;;3.97;2.45;;;20.90;56.30;;;;;;3158939;28;20059;-88
2021/10/28 01:27:02;;;;;;;3.85;2.33;;;20.90;56.20;;;;;;3158968;28;20044;-87
2021/10/28 01:28:36;;;;;;;3.00;2.03;;;20.90;56.20;;;;;;3158062;28;20545;-87
2021/10/28 01:30:08;;;;;;;4.18;2.25;;;20.90;56.30;;;;;;3157689;28;20113;-87
2021/10/28 01:31:40;;;;;;;2.65;2.22;;;20.90;56.30;;;;;;3158226;28;20399;-87
2021/10/28 01:33:12;;;;;;;2.97;2.10;;;20.90;56.30;;;;;;3158034;28;20546;-88
2021/10/28 01:34:44;;;;;;;3.90;2.38;;;21.00;56.00;;;;;;3158239;28;20055;-88
2021/10/28 01:36:18;;;;;;;3.90;2.55;;;21.00;55.70;;;;;;3154196;28;20044;-88
2021/10/28 01:37:50;;;;;;;3.88;2.28;;;21.10;55.50;;;;;;3157816;28;20051;-87
2021/10/28 01:39:22;;;;;;;4.17;2.30;;;21.10;55.40;;;;;;3158960;28;20079;-88
2021/10/28 01:40:54;;;;;;;5.22;2.58;;;21.10;55.30;;;;;;3158436;28;20067;-88
2021/10/28 01:42:25;;;;;;;5.55;2.35;;;21.20;55.20;;;;;;3158736;28;20055;-88
2021/10/28 01:43:57;;;;;;;4.78;2.22;;;21.20;55.10;;;;;;3145860;28;20060;-87
2021/10/28 01:45:29;;;;;;;3.15;2.20;;;21.30;55.10;;;;;;3155703;28;20090;-87
2021/10/28 01:47:01;;;;;;;3.20;2.30;;;21.20;55.00;;;;;;3158701;28;20052;-88
2021/10/28 01:48:33;;;;;;;3.15;2.28;;;21.20;54.80;;;;;;3158669;28;20044;-87
2021/10/28 01:50:05;;;;;;;4.55;2.50;;;21.30;54.80;;;;;;3158158;28;20131;-87
2021/10/28 01:51:38;;;;;;;4.82;2.38;;;21.30;54.70;;;;;;3159128;28;20052;-88
2021/10/28 01:53:10;;;;;;;4.95;2.63;;;21.30;54.60;;;;;;3158433;28;20047;-88
2021/10/28 01:54:42;;;;;;;6.03;2.40;;;21.30;54.50;;;;;;3158538;28;20502;-87
2021/10/28 01:56:14;;;;;;;3.05;2.20;;;21.30;54.50;;;;;;3151135;28;20563;-88
2021/10/28 01:57:46;;;;;;;3.60;2.55;;;21.40;54.50;;;;;;3146024;28;20040;-88
2021/10/28 01:59:17;;;;;;;4.80;2.30;;;21.30;54.50;;;;;;3147950;28;20102;-88
2021/10/28 02:00:50;;;;;;;3.72;2.35;;;21.30;54.40;;;;;;3156301;28;20047;-88
2021/10/28 02:02:21;;;;;;;2.47;2.10;;;21.40;54.40;;;;;;3158434;28;20504;-87
2021/10/28 02:03:53;;;;;;;4.88;2.55;;;21.40;54.30;;;;;;3156829;28;20060;-87
2021/10/28 02:05:25;;;;;;;2.97;2.17;;;21.40;54.20;;;;;;3150227;28;20056;-88
2021/10/28 02:06:58;;;;;;;3.67;2.45;;;21.40;54.20;;;;;;3158503;28;20044;-88
2021/10/28 02:08:30;;;;;;;3.42;2.50;;;21.40;54.20;;;;;;3158156;28;20087;-88
2021/10/28 02:10:01;;;;;;;3.25;2.30;;;21.40;54.20;;;;;;3158777;28;20048;-88
2021/10/28 02:11:33;;;;;;;4.75;2.47;;;21.40;54.20;;;;;;3158936;28;20129;-88
2021/10/28 02:13:05;;;;;;;4.82;2.38;;;21.40;54.20;;;;;;3158270;28;20151;-87
2021/10/28 02:14:36;;;;;;;5.33;2.73;;;21.40;54.20;;;;;;3158471;28;20135;-88
2021/10/28 02:16:08;;;;;;;3.47;2.30;;;21.40;54.20;;;;;;3157764;28;20048;-88
2021/10/28 02:17:39;;;;;;;4.63;2.35;;;21.40;54.10;;;;;;3158011;28;20086;-88
2021/10/28 02:19:11;;;;;;;3.78;2.22;;;21.40;54.10;;;;;;3158673;28;20044;-87
2021/10/28 02:20:42;;;;;;;4.95;2.28;;;21.50;54.00;;;;;;3158629;28;20052;-87
2021/10/28 02:22:15;;;;;;;3.45;2.17;;;21.40;54.00;;;;;;3161145;28;20524;-88
2021/10/28 02:23:47;;;;;;;4.28;2.30;;;21.50;53.90;;;;;;3160169;28;20509;-87
2021/10/28 02:25:19;;;;;;;3.08;2.30;;;21.50;53.90;;;;;;3161183;28;20569;-88
2021/10/28 02:26:51;;;;;;;3.88;2.30;;;21.50;53.90;;;;;;3161264;28;20062;-88
2021/10/28 02:28:23;;;;;;;4.43;2.25;;;21.40;53.90;;;;;;3161115;28;20040;-88
2021/10/28 02:29:55;;;;;;;3.95;2.25;;;21.50;53.80;;;;;;3160583;28;20135;-88
2021/10/28 02:31:26;;;;;;;3.30;2.30;;;21.50;53.80;;;;;;3160053;28;20390;-88
2021/10/28 02:32:58;;;;;;;4.20;2.38;;;21.50;53.80;;;;;;3160518;28;20737;-87
2021/10/28 02:34:30;;;;;;;3.92;2.75;;;21.50;53.70;;;;;;3160924;28;20084;-88
2021/10/28 02:36:01;;;;;;;2.78;2.35;;;21.50;53.80;;;;;;3160711;28;20112;-88
2021/10/28 02:37:34;;;;;;;3.53;2.60;;;21.50;53.70;;;;;;3160378;28;20074;-88
2021/10/28 02:39:05;;;;;;;4.30;2.30;;;21.50;53.70;;;;;;3160867;28;20086;-88
2021/10/28 02:40:37;;;;;;;3.38;2.47;;;21.40;53.70;;;;;;3160934;28;20056;-88
2021/10/28 02:42:09;;;;;;;4.47;2.53;;;21.50;53.50;;;;;;3161072;28;20561;-88
2021/10/28 02:43:41;;;;;;;5.90;2.47;;;21.50;53.50;;;;;;3160572;28;20104;-87
2021/10/28 02:45:13;;;;;;;3.22;2.53;;;21.50;53.50;;;;;;3159974;28;20056;-87
2021/10/28 02:46:45;;;;;;;3.55;2.40;;;21.60;53.60;;;;;;3160945;28;20077;-87
2021/10/28 02:48:16;;;;;;;3.40;2.78;;;21.50;53.60;;;;;;3171681;28;20052;-88
2021/10/28 02:49:48;;;;;;;3.38;2.40;;;21.60;53.70;;;;;;3159695;28;20040;-87
2021/10/28 02:51:20;;;;;;;5.43;3.10;;;21.50;53.50;;;;;;3160622;28;20456;-88
2021/10/28 02:52:53;;;;;;;3.20;2.60;;;21.50;53.50;;;;;;3166687;28;20611;-88
2021/10/28 02:54:25;;;;;;;3.47;2.75;;;21.50;53.60;;;;;;3166441;28;20108;-87
2021/10/28 02:55:57;;;;;;;4.75;2.83;;;21.50;53.60;;;;;;3173242;28;20062;-88
2021/10/28 02:57:28;;;;;;;4.05;2.60;;;21.60;53.50;;;;;;3172644;28;20039;-88
2021/10/28 02:59:00;;;;;;;4.00;2.60;;;21.60;53.30;;;;;;3171246;28;20410;-87
2021/10/28 03:00:32;;;;;;;4.32;2.65;;;21.60;53.50;;;;;;3169492;28;20127;-88
2021/10/28 03:02:04;;;;;;;3.85;2.75;;;21.60;53.40;;;;;;3173129;28;20047;-87
2021/10/28 03:03:38;;;;;;;3.85;2.55;;;21.60;53.50;;;;;;3160999;28;20044;-88
2021/10/28 03:05:10;;;;;;;4.70;2.67;;;21.60;53.60;;;;;;3160320;28;20052;-88
2021/10/28 03:06:42;;;;;;;4.93;2.95;;;21.50;53.50;;;;;;3162578;28;20146;-88
2021/10/28 03:08:15;;;;;;;5.50;3.23;;;21.60;53.50;;;;;;3172161;28;20047;-88
2021/10/28 03:09:47;;;;;;;4.55;3.22;;;21.60;53.50;;;;;;3172803;28;20836;-88
2021/10/28 03:11:19;;;;;;;4.35;3.00;;;21.50;53.50;;;;;;3167349;28;20045;-88
2021/10/28 03:12:53;;;;;;;4.53;3.10;;;21.50;53.50;;;;;;3159291;28;20499;-88
2021/10/28 03:14:31;;;;;;;6.47;2.83;;;21.50;53.50;;;;;;3157390;28;20052;-87
2021/10/28 03:16:13;;;;;;;5.03;3.17;;;21.60;53.40;;;;;;3150808;28;20518;-88
2021/10/28 03:18:06;;;;;;;5.32;3.10;;;21.50;53.30;;;;;;3158773;28;20161;-87
2021/10/28 03:19:45;;;;;;;5.45;3.30;;;21.60;53.20;;;;;;3160105;28;20138;-87
2021/10/28 03:26:46;;;;;;;4.80;3.00;;;21.60;53.20;;;;;;3165532;28;20051;-88
2021/10/28 03:28:18;;;;;;;4.38;3.28;;;21.60;53.20;;;;;;3166118;28;20042;-88
2021/10/28 03:29:50;;;;;;;3.45;2.88;;;21.70;53.10;;;;;;3160985;28;20040;-88
2021/10/28 03:31:22;;;;;;;4.65;3.20;;;21.70;53.20;;;;;;3160514;28;20059;-88
2021/10/28 03:32:54;;;;;;;4.20;3.28;;;21.60;53.20;;;;;;3158795;28;20040;-88
2021/10/28 03:34:26;;;;;;;6.32;3.75;;;21.70;53.10;;;;;;3160078;28;20051;-88
2021/10/28 03:35:57;;;;;;;5.28;3.22;;;21.60;53.00;;;;;;3154415;28;20059;-88
2021/10/28 03:37:31;;;;;;;5.38;3.05;;;21.70;53.10;;;;;;3160099;28;20105;-88
2021/10/28 03:39:09;;;;;;;5.22;3.35;;;21.60;53.10;;;;;;3159994;28;20132;-87
2021/10/28 03:41:01;;;;;;;4.50;2.92;;;21.60;53.20;;;;;;3159098;28;20051;-87
2021/10/28 03:50:37;;;;;;;5.75;2.85;;;21.70;54.30;;;;;;3156089;28;20408;-89
2021/10/28 03:54:26;;;;;;;3.50;2.22;;;21.90;54.30;;;;;;3160356;28;20127;-87
2021/10/28 03:58:08;;;;;;;3.80;2.10;;;22.20;53.30;;;;;;3141114;28;20050;-88
2021/10/28 04:02:06;;;;;;;3.85;2.15;;;22.50;52.60;;;;;;3124296;28;20040;-88
2021/10/28 04:20:44;;;;;;;10.02;2.42;;;23.10;52.80;;;;;;3153410;28;20040;-87
2021/10/28 04:29:49;;;;;;;8.63;1.88;;;23.50;52.20;;;;;;3151391;28;20048;-88
2021/10/28 04:31:21;;;;;;;4.32;1.98;;;23.50;52.20;;;;;;3158332;28;20535;-88
2021/10/28 04:32:53;;;;;;;6.22;2.30;;;23.50;52.00;;;;;;3158880;28;20052;-89
2021/10/28 04:34:25;;;;;;;6.18;1.85;;;23.50;52.00;;;;;;3157356;28;20047;-88
2021/10/28 04:35:57;;;;;;;5.10;2.00;;;23.60;52.10;;;;;;3159104;28;20044;-90
2021/10/28 04:37:29;;;;;;;4.32;2.25;;;23.50;52.10;;;;;;3159388;28;20512;-89
2021/10/28 04:39:01;;;;;;;4.60;2.08;;;23.60;52.10;;;;;;3158285;28;20040;-88
2021/10/28 04:40:33;;;;;;;4.05;2.17;;;23.60;52.10;;;;;;3159217;28;20035;-89
2021/10/28 04:42:05;;;;;;;3.17;1.70;;;23.60;52.10;;;;;;3159192;28;20109;-88
2021/10/28 04:43:38;;;;;;;3.28;1.92;;;23.50;52.10;;;;;;3148619;28;20477;-88
2021/10/28 04:45:11;;;;;;;4.18;2.00;;;23.50;52.00;;;;;;3152589;28;20098;-88
2021/10/28 04:46:42;;;;;;;3.42;2.00;;;23.50;52.20;;;;;;3159110;28;20048;-87
2021/10/28 04:48:14;;;;;;;3.05;1.60;;;23.40;52.30;;;;;;3158447;28;20040;-88
2021/10/28 04:49:46;;;;;;;5.57;1.90;;;23.40;52.30;;;;;;3158946;28;20097;-88
2021/10/28 04:51:18;;;;;;;3.95;2.20;;;23.40;52.50;;;;;;3158702;28;20485;-88
2021/10/28 04:52:50;;;;;;;4.37;2.17;;;23.40;53.20;;;;;;3158362;28;20046;-89
2021/10/28 04:54:20;;;;;;;3.65;2.00;;;23.30;52.60;;;;;;3159067;28;20051;-88
2021/10/28 04:55:52;;;;;;;2.95;1.73;;;23.30;52.80;;;;;;3159659;28;20048;-88
2021/10/28 04:57:24;;;;;;;4.97;1.70;;;23.30;52.80;;;;;;3159100;28;20044;-88
2021/10/28 04:58:57;;;;;;;3.72;2.20;;;23.20;52.80;;;;;;3158225;28;20039;-89
2021/10/28 05:00:29;;;;;;;3.22;2.20;;;23.20;53.10;;;;;;3158053;28;20050;-88
2021/10/28 05:02:01;;;;;;;4.75;2.45;;;23.00;53.60;;;;;;3159038;28;20071;-89
2021/10/28 05:03:35;;;;;;;7.05;2.20;;;23.00;54.60;;;;;;3156370;28;20051;-88
2021/10/28 05:05:07;;;;;;;5.03;2.00;;;23.00;54.70;;;;;;3159118;28;20171;-92
2021/10/28 05:06:39;;;;;;;3.90;1.90;;;22.90;54.70;;;;;;3159334;28;20456;-88
2021/10/28 05:08:10;;;;;;;4.50;2.00;;;22.90;54.90;;;;;;3158499;28;20105;-90
2021/10/28 05:09:44;;;;;;;4.63;2.47;;;22.80;55.20;;;;;;3159010;28;20047;-89
2021/10/28 05:11:17;;;;;;;7.20;2.25;;;22.80;55.50;;;;;;3158688;28;20052;-88
2021/10/28 05:12:49;;;;;;;6.60;2.42;;;22.80;55.90;;;;;;3158718;28;20044;-92
2021/10/28 05:14:23;;;;;;;9.45;2.50;;;22.80;56.10;;;;;;3158994;28;20050;-89
2021/10/28 05:15:55;;;;;;;11.50;3.00;;;22.90;56.30;;;;;;3158342;28;20044;-91
2021/10/28 05:17:26;;;;;;;36.08;3.90;;;22.90;56.70;;;;;;3160205;28;20048;-91
2021/10/28 05:18:58;;;;;;;13.05;3.72;;;22.90;57.00;;;;;;3158955;28;20119;-88
2021/10/28 05:20:30;;;;;;;14.45;3.85;;;22.80;57.00;;;;;;3159557;28;20080;-89
2021/10/28 05:22:02;;;;;;;18.13;4.00;;;22.90;57.00;;;;;;3159507;28;20054;-89
2021/10/28 05:25:24;;;;;;;24.25;5.57;;;22.90;57.30;;;;;;3159811;28;20083;-90
2021/10/28 05:26:56;;;;;;;21.90;5.07;;;23.00;57.90;;;;;;3159575;28;20531;-90
2021/10/28 05:28:28;;;;;;;18.80;4.95;;;23.00;58.00;;;;;;3158786;28;20464;-91
2021/10/28 05:30:02;;;;;;;25.83;5.15;;;23.00;58.10;;;;;;3159436;28;20048;-91
2021/10/28 05:31:34;;;;;;;23.25;5.22;;;23.00;58.30;;;;;;3158026;28;20113;-89
2021/10/28 05:33:05;;;;;;;19.47;5.13;;;23.00;58.30;;;;;;3158844;28;20044;-89
2021/10/28 05:34:38;;;;;;;17.10;5.13;;;23.10;58.40;;;;;;3159387;28;20302;-89
2021/10/28 05:36:10;;;;;;;15.07;4.97;;;23.10;58.20;;;;;;3159729;28;20102;-88
2021/10/28 05:37:41;;;;;;;27.65;5.22;;;23.10;58.10;;;;;;3158814;28;20101;-90
2021/10/28 05:39:13;;;;;;;25.08;5.60;;;23.20;58.30;;;;;;3159264;28;20513;-89
2021/10/28 05:40:45;;;;;;;27.42;6.15;;;23.10;58.30;;;;;;3159511;28;20051;-90
2021/10/28 05:42:17;;;;;;;41.33;6.03;;;23.10;58.50;;;;;;3159021;28;20089;-91
2021/10/28 05:43:49;;;;;;;26.88;5.75;;;23.10;58.60;;;;;;3158745;28;20051;-92
2021/10/28 05:45:22;;;;;;;33.63;6.63;;;23.10;58.80;;;;;;3158668;28;20055;-92
2021/10/28 05:46:54;;;;;;;30.15;5.78;;;23.10;59.00;;;;;;3159310;28;20352;-91
2021/10/28 05:48:26;;;;;;;38.05;7.38;;;23.10;59.10;;;;;;3158933;28;20048;-91
2021/10/28 05:49:58;;;;;;;27.60;5.95;;;23.10;59.20;;;;;;3160080;28;20048;-90
2021/10/28 05:51:30;;;;;;;26.80;5.97;;;23.10;59.20;;;;;;3159152;28;20131;-91
2021/10/28 05:53:02;;;;;;;21.27;5.23;;;23.10;59.30;;;;;;3158662;28;20048;-90
2021/10/28 05:54:34;;;;;;;28.90;5.95;;;23.10;59.10;;;;;;3159483;28;20052;-91
2021/10/28 05:56:05;;;;;;;31.67;6.15;;;23.10;59.30;;;;;;3160030;28;20101;-89
2021/10/28 05:57:37;;;;;;;24.45;5.57;;;23.10;59.30;;;;;;3160559;28;20059;-89
2021/10/28 05:59:09;;;;;;;28.05;5.13;;;23.10;59.10;;;;;;3160567;28;20425;-88
2021/10/28 06:00:41;;;;;;;21.15;5.45;;;23.10;58.90;;;;;;3160204;28;20048;-89
2021/10/28 06:02:13;;;;;;;23.63;5.50;;;23.10;59.00;;;;;;3160680;28;20064;-88
2021/10/28 06:03:45;;;;;;;17.20;5.00;;;23.00;59.10;;;;;;3157956;28;20047;-89
2021/10/28 06:05:16;;;;;;;19.30;5.13;;;23.00;59.10;;;;;;3152453;28;20049;-89
2021/10/28 06:06:48;;;;;;;18.77;5.35;;;22.90;59.20;;;;;;3151242;28;20383;-90
2021/10/28 06:08:20;;;;;;;17.45;5.22;;;22.90;59.30;;;;;;3160194;28;20127;-90
2021/10/28 06:09:52;;;;;;;18.70;4.70;;;22.90;59.30;;;;;;3160641;28;20516;-90
2021/10/28 06:11:24;;;;;;;19.85;4.85;;;22.90;59.20;;;;;;3161477;28;20044;-90
2021/10/28 06:13:00;;;;;;;18.23;5.20;;;22.90;59.20;;;;;;3222691;22;20035;-48
2021/10/28 06:14:32;;;;;;;12.98;4.53;;;22.90;59.20;;;;;;3163723;27;20083;-49
2021/10/28 06:16:07;;;;;;;11.73;4.13;;;22.90;59.30;;;;;;3167804;28;20046;-50
2021/10/28 06:17:45;;;;;;;14.05;4.80;;;22.80;59.30;;;;;;3161531;28;20444;-50
2021/10/28 06:19:17;;;;;;;12.13;4.68;;;22.90;59.30;;;;;;3167219;28;20050;-49
2021/10/28 06:20:50;;;;;;;14.20;4.45;;;22.90;59.20;;;;;;3171937;28;20116;-49
2021/10/28 06:22:22;;;;;;;10.38;4.38;;;22.90;59.10;;;;;;3163009;28;20470;-48
2021/10/28 06:23:54;;;;;;;12.63;4.20;;;22.90;58.90;;;;;;3171698;28;20066;-50
2021/10/28 06:25:25;;;;;;;14.63;4.47;;;22.90;58.90;;;;;;3172103;28;20059;-46
2021/10/28 06:26:57;;;;;;;12.85;4.32;;;22.90;58.80;;;;;;3168350;28;20058;-49
2021/10/28 06:28:29;;;;;;;10.68;4.32;;;22.90;58.90;;;;;;3171921;28;20046;-46
2021/10/28 06:30:01;;;;;;;9.95;4.03;;;23.00;58.70;;;;;;3166400;28;20571;-46
2021/10/28 06:31:34;;;;;;;14.88;4.30;;;22.90;58.70;;;;;;3160123;28;20044;-51
2021/10/28 06:33:10;;;;;;;10.07;4.22;;;23.00;58.70;;;;;;3170555;28;20044;-47
2021/10/28 06:34:43;;;;;;;7.15;3.67;;;22.90;58.70;;;;;;3161930;28;20416;-48
2021/10/28 06:36:18;;;;;;;12.18;3.80;;;22.90;58.60;;;;;;3163125;28;20130;-46
2021/10/28 06:37:50;;;;;;;10.38;4.38;;;23.00;58.70;;;;;;3171491;28;20070;-52
2021/10/28 06:39:22;;;;;;;10.50;3.85;;;23.00;58.60;;;;;;3171479;28;20474;-51
2021/10/28 06:40:54;;;;;;;11.63;3.92;;;23.00;58.60;;;;;;3171312;28;20059;-46
2021/10/28 06:42:25;;;;;;;9.82;3.90;;;23.00;58.40;;;;;;3167972;28;20044;-49
2021/10/28 06:44:00;;;;;;;12.00;3.92;;;22.90;58.40;;;;;;3158119;28;20052;-49
2021/10/28 06:45:31;;;;;;;10.60;3.95;;;23.00;58.40;;;;;;3168590;28;20130;-54
2021/10/28 06:47:05;;;;;;;9.20;3.78;;;23.00;58.40;;;;;;3165790;28;20044;-48
2021/10/28 06:48:37;;;;;;;9.20;3.80;;;22.90;58.40;;;;;;3160112;28;20090;-50
2021/10/28 06:50:12;;;;;;;9.75;4.20;;;22.90;58.30;;;;;;3159938;28;20040;-57
2021/10/28 06:51:44;;;;;;;9.30;4.20;;;23.00;58.20;;;;;;3168628;28;20100;-47
2021/10/28 06:53:22;;;;;;;11.90;3.47;;;23.00;58.00;;;;;;3166708;28;20039;-48
2021/10/28 06:54:56;;;;;;;8.68;3.72;;;23.00;57.90;;;;;;3164710;28;20572;-49
2021/10/28 07:02:19;;;;;;;9.35;3.85;;;23.00;57.90;;;;;;3168458;28;20427;-56
2021/10/28 07:03:51;;;;;;;9.73;3.85;;;23.00;58.20;;;;;;3163760;28;20048;-55
2021/10/28 07:05:22;;;;;;;7.18;3.53;;;23.00;58.10;;;;;;3160558;28;20048;-53
2021/10/28 07:06:54;;;;;;;10.63;3.72;;;23.00;58.00;;;;;;3168729;28;20082;-47
2021/10/28 07:08:26;;;;;;;7.77;3.73;;;23.00;57.90;;;;;;3169837;28;20043;-50
2021/10/28 07:10:02;;;;;;;7.40;3.50;;;23.00;58.00;;;;;;3171117;28;20100;-55
2021/10/28 07:11:37;;;;;;;9.65;3.97;;;23.00;58.00;;;;;;3161723;28;20059;-54
2021/10/28 07:13:13;;;;;;;11.65;3.70;;;22.90;58.00;;;;;;3160846;28;20052;-54
2021/10/28 07:14:49;;;;;;;8.23;3.33;;;22.90;58.00;;;;;;3164339;28;20763;-49
2021/10/28 07:16:27;;;;;;;7.47;3.40;;;22.90;58.00;;;;;;3162578;28;20130;-47
2021/10/28 07:18:11;;;;;;;6.50;3.13;;;22.90;58.10;;;;;;3169876;28;20127;-50
2021/10/28 07:19:54;;;;;;;6.25;3.22;;;22.90;58.00;;;;;;3158090;28;20036;-50
2021/10/28 07:21:39;;;;;;;6.57;3.35;;;22.90;57.90;;;;;;3163156;28;20039;-56
2021/10/28 07:27:28;;;;;;;8.57;3.25;;;23.00;57.80;;;;;;3117983;28;20052;-51
2021/10/28 07:31:05;;;;;;;6.50;3.00;;;23.00;57.80;;;;;;3157061;28;20071;-48
2021/10/28 07:32:54;;;;;;;6.70;3.10;;;23.00;57.70;;;;;;3161798;28;20051;-49
2021/10/28 07:34:34;;;;;;;6.55;3.10;;;23.00;57.60;;;;;;3161891;28;20134;-50
2021/10/28 07:38:26;;;;;;;9.45;3.40;;;23.00;57.60;;;;;;3170294;28;20043;-47
2021/10/28 07:57:06;;;;;;;5.13;2.60;;;22.90;57.20;;;;;;3163624;28;20048;-49
2021/10/28 08:15:20;;;;;;;5.78;2.83;;;23.10;56.40;;;;;;3120494;28;20060;-50
2021/10/28 08:17:06;;;;;;;6.30;2.97;;;23.00;56.40;;;;;;3167990;28;20048;-47
2021/10/28 08:18:55;;;;;;;7.05;3.20;;;23.10;56.10;;;;;;3163603;28;20063;-55
2021/10/28 08:20:53;;;;;;;7.45;2.58;;;23.20;56.00;;;;;;3164498;28;20043;-53
2021/10/28 08:22:32;;;;;;;7.15;2.60;;;23.20;55.80;;;;;;3161668;28;20043;-50
2021/10/28 08:24:13;;;;;;;6.10;2.70;;;23.20;55.70;;;;;;3167473;28;20451;-48
2021/10/28 08:29:24;;;;;;;6.07;2.78;;;23.20;55.50;;;;;;3168325;28;20051;-46
2021/10/28 08:30:56;;;;;;;3.65;2.40;;;23.30;55.30;;;;;;3166174;28;20036;-51
2021/10/28 08:32:28;;;;;;;7.15;2.70;;;23.30;55.20;;;;;;3169081;28;20093;-48
2021/10/28 08:33:59;;;;;;;4.50;2.80;;;23.30;55.20;;;;;;3159238;28;20398;-47
2021/10/28 08:35:32;;;;;;;5.65;2.88;;;23.30;55.80;;;;;;3161871;28;20056;-48
2021/10/28 08:37:08;;;;;;;8.48;2.88;;;23.30;55.00;;;;;;3164821;28;20047;-47
2021/10/28 08:38:41;;;;;;;4.45;2.45;;;23.30;55.00;;;;;;3169651;28;20040;-47
2021/10/28 08:40:15;;;;;;;6.00;2.40;;;23.30;55.00;;;;;;3167886;28;20046;-47
2021/10/28 08:41:47;;;;;;;5.38;2.55;;;23.20;54.80;;;;;;3170234;28;20082;-55
2021/10/28 08:43:19;;;;;;;4.80;2.60;;;23.30;54.70;;;;;;3169175;27;20088;-49
2021/10/28 08:44:52;;;;;;;3.43;2.20;;;23.30;54.60;;;;;;3169882;28;20048;-48
2021/10/28 08:46:24;;;;;;;;;;;23.30;54.60;;;;;;3165737;28;20795;-50
2021/10/28 08:47:58;;;;;;;3.13;2.35;;;23.30;54.50;;;;;;3162990;28;19921;-51
2021/10/28 08:49:33;;;;;;;5.38;2.75;;;23.30;54.50;;;;;;3168153;28;20075;-51
2021/10/28 08:51:08;;;;;;;4.50;2.30;;;23.30;54.50;;;;;;3169730;28;20088;-53
2021/10/28 08:52:56;;;;;;;6.50;2.45;;;23.30;54.60;;;;;;3167375;28;20047;-49
2021/10/28 08:54:57;;;;;;;5.57;2.40;;;23.40;54.50;;;;;;3170088;28;20505;-52
2021/10/28 08:56:51;;;;;;;4.97;2.40;;;23.40;54.40;;;;;;3170351;28;20048;-47
2021/10/28 08:58:44;;;;;;;5.65;2.15;;;23.40;54.30;;;;;;3168840;28;20048;-55
2021/10/28 09:19:44;;;;;;;5.47;2.15;;;23.50;54.00;;;;;;3168884;28;20047;-56
2021/10/28 09:25:08;;;;;;;4.90;2.08;;;23.50;54.10;;;;;;3154866;28;20127;-53
2021/10/28 09:26:46;;;;;;;6.75;2.22;;;23.50;54.10;;;;;;3161421;28;20048;-57
2021/10/28 09:28:29;;;;;;;4.50;2.35;;;23.40;54.10;;;;;;3161759;28;20052;-57
2021/10/28 09:30:08;;;;;;;3.35;2.10;;;23.50;54.00;;;;;;3167694;28;20413;-52
2021/10/28 09:31:49;;;;;;;4.18;2.30;;;23.50;53.80;;;;;;3166472;28;20071;-55
2021/10/28 09:33:27;;;;;;;3.92;2.10;;;23.50;53.70;;;;;;3160312;28;20513;-54
2021/10/28 09:35:21;;;;;;;4.10;2.08;;;23.50;53.80;;;;;;3166508;28;20081;-58
2021/10/28 09:44:34;;;;;;;4.15;2.55;;;23.50;52.90;;;;;;3160984;28;20040;-53
2021/10/28 09:46:16;;;;;;;3.35;2.22;;;23.50;52.60;;;;;;3153332;28;20693;-54
2021/10/28 09:47:52;;;;;;;4.95;2.47;;;23.50;52.80;;;;;;3155886;28;20048;-58
2021/10/28 09:51:10;;;;;;;6.22;2.40;;;23.50;52.90;;;;;;3168264;28;20074;-53
2021/10/28 13:36:18;;;;;;;4.38;1.40;;;23.90;48.40;;;;;;3106481;28;20049;-57
2021/10/28 13:48:52;;;;;;;2.50;1.42;;;24.00;47.80;;;;;;3072911;28;20155;-56
2021/10/28 13:50:45;;;;;;;1.73;1.27;;;24.00;47.70;;;;;;3111500;28;20046;-55
2021/10/28 13:52:30;;;;;;;2.25;1.20;;;24.00;47.80;;;;;;3105555;28;20078;-52
2021/10/28 13:54:20;;;;;;;2.00;1.30;;;24.00;47.80;;;;;;3109743;28;20675;-56
2021/10/28 13:57:54;;;;;;;4.18;1.25;;;24.10;47.80;;;;;;3104787;28;20054;-57
2021/10/28 14:24:20;;;;;;;1.50;1.00;;;23.90;48.50;;;;;;3094262;28;20046;-53
2021/10/28 14:32:20;;;;;;;3.42;1.30;;;24.30;47.10;;;;;;3056235;28;20052;-54
2021/10/28 14:38:03;;;;;;;10.07;1.20;;;25.30;45.20;;;;;;3060295;28;20054;-53
2021/10/28 15:02:09;;;;;;;3.40;1.20;;;24.60;50.90;;;;;;3071215;28;20055;-56
2021/10/28 15:29:31;;;;;;;3.60;1.30;;;23.80;49.00;;;;;;3079876;28;20105;-51
2021/10/28 15:31:22;;;;;;;2.15;1.30;;;23.80;49.00;;;;;;3098233;28;20050;-50
2021/10/28 15:34:56;;;;;;;3.80;1.52;;;23.70;49.30;;;;;;3063064;28;20051;-50
2021/10/28 15:36:33;;;;;;;10.18;1.48;;;23.60;49.10;;;;;;3098558;28;20074;-50
2021/10/28 15:40:04;;;;;;;6.35;1.50;;;23.60;48.90;;;;;;3080552;28;20062;-49
2021/10/28 15:53:12;;;;;;;3.38;1.50;;;23.70;48.50;;;;;;3056707;28;20191;-53
2021/10/28 16:00:24;;;;;;;4.32;1.80;;;23.70;48.40;;;;;;3094342;28;20053;-50
2021/10/28 16:22:13;;;;;;;4.07;1.55;;;24.00;48.50;;;;;;3096183;28;20521;-58
2021/10/28 16:23:46;;;;;;;4.22;1.60;;;23.90;48.50;;;;;;3095325;28;20064;-53
2021/10/28 16:25:18;;;;;;;4.40;1.80;;;24.00;48.40;;;;;;3095738;28;20056;-52
2021/10/28 16:26:50;;;;;;;8.52;1.98;;;24.00;48.50;;;;;;3095945;28;20549;-52
2021/10/28 16:28:25;;;;;;;7.10;1.73;;;24.00;48.30;;;;;;3095736;28;20050;-56
2021/10/28 16:29:56;;;;;;;6.32;1.65;;;24.00;48.20;;;;;;3094544;28;20058;-56
2021/10/28 16:31:28;;;;;;;7.00;1.45;;;24.00;48.30;;;;;;3095199;28;20051;-55
2021/10/28 16:33:00;;;;;;;4.63;1.52;;;24.00;48.40;;;;;;3095228;28;20096;-57